sensor_id;sensor_type;location;lat;lon;timestamp;P1;durP1;ratioP1;P2;durP2;ratioP2
948;SDS011;461;51.436;7.312;2023-06-14T00:02:12;10.60;;;6.90;;
948;SDS011;461;51.436;7.312;2023-06-14T00:04:38;8.40;;;6.67;;
948;SDS011;461;51.436;7.312;2023-06-14T00:07:06;8.93;;;6.27;;
948;SDS011;461;51.436;7.312;2023-06-14T00:09:34;11.03;;;7.17;;
948;SDS011;461;51.436;7.312;2023-06-14T00:12:00;11.83;;;7.03;;
948;SDS011;461;51.436;7.312;2023-06-14T00:14:26;13.00;;;7.60;;
948;SDS011;461;51.436;7.312;2023-06-14T00:16:52;9.43;;;7.30;;
948;SDS011;461;51.436;7.312;2023-06-14T00:19:23;17.33;;;7.50;;
948;SDS011;461;51.436;7.312;2023-06-14T00:21:49;8.90;;;7.00;;
948;SDS011;461;51.436;7.312;2023-06-14T00:24:17;8.50;;;7.03;;
948;SDS011;461;51.436;7.312;2023-06-14T00:26:43;13.13;;;7.67;;
948;SDS011;461;51.436;7.312;2023-06-14T00:29:09;9.13;;;7.00;;
948;SDS011;461;51.436;7.312;2023-06-14T00:31:35;7.30;;;6.60;;
948;SDS011;461;51.436;7.312;2023-06-14T00:34:01;9.40;;;6.87;;
948;SDS011;461;51.436;7.312;2023-06-14T00:36:27;7.73;;;6.77;;
948;SDS011;461;51.436;7.312;2023-06-14T00:38:53;12.50;;;7.20;;
948;SDS011;461;51.436;7.312;2023-06-14T00:41:19;8.33;;;6.87;;
948;SDS011;461;51.436;7.312;2023-06-14T00:43:45;8.13;;;6.90;;
948;SDS011;461;51.436;7.312;2023-06-14T00:46:12;7.30;;;6.53;;
948;SDS011;461;51.436;7.312;2023-06-14T00:48:38;7.47;;;6.67;;
948;SDS011;461;51.436;7.312;2023-06-14T00:51:05;9.27;;;6.80;;
948;SDS011;461;51.436;7.312;2023-06-14T00:53:31;7.90;;;7.10;;
948;SDS011;461;51.436;7.312;2023-06-14T00:56:00;6.70;;;6.03;;
948;SDS011;461;51.436;7.312;2023-06-14T00:58:26;9.27;;;7.17;;
948;SDS011;461;51.436;7.312;2023-06-14T01:00:53;8.97;;;6.33;;
948;SDS011;461;51.436;7.312;2023-06-14T01:03:19;6.90;;;6.07;;
948;SDS011;461;51.436;7.312;2023-06-14T01:05:48;7.63;;;6.53;;
948;SDS011;461;51.436;7.312;2023-06-14T01:08:18;10.10;;;6.70;;
948;SDS011;461;51.436;7.312;2023-06-14T01:10:52;7.27;;;6.57;;
948;SDS011;461;51.436;7.312;2023-06-14T01:13:27;7.50;;;6.63;;
948;SDS011;461;51.436;7.312;2023-06-14T01:15:55;7.17;;;6.30;;
948;SDS011;461;51.436;7.312;2023-06-14T01:18:22;7.37;;;6.70;;
948;SDS011;461;51.436;7.312;2023-06-14T01:20:49;10.40;;;7.00;;
948;SDS011;461;51.436;7.312;2023-06-14T01:23:19;9.80;;;6.97;;
948;SDS011;461;51.436;7.312;2023-06-14T01:25:46;6.63;;;6.00;;
948;SDS011;461;51.436;7.312;2023-06-14T01:28:12;9.53;;;6.83;;
948;SDS011;461;51.436;7.312;2023-06-14T01:30:43;7.03;;;6.33;;
948;SDS011;461;51.436;7.312;2023-06-14T01:33:14;7.70;;;6.50;;
948;SDS011;461;51.436;7.312;2023-06-14T01:35:44;8.07;;;6.63;;
948;SDS011;461;51.436;7.312;2023-06-14T01:38:10;6.60;;;5.90;;
948;SDS011;461;51.436;7.312;2023-06-14T01:40:37;10.83;;;6.37;;
948;SDS011;461;51.436;7.312;2023-06-14T01:43:04;7.53;;;6.63;;
948;SDS011;461;51.436;7.312;2023-06-14T01:45:31;8.10;;;6.90;;
948;SDS011;461;51.436;7.312;2023-06-14T01:47:57;7.07;;;6.37;;
948;SDS011;461;51.436;7.312;2023-06-14T01:50:23;7.80;;;6.13;;
948;SDS011;461;51.436;7.312;2023-06-14T01:52:53;12.43;;;5.87;;
948;SDS011;461;51.436;7.312;2023-06-14T01:55:19;10.50;;;6.07;;
948;SDS011;461;51.436;7.312;2023-06-14T01:57:47;6.70;;;6.00;;
948;SDS011;461;51.436;7.312;2023-06-14T02:00:13;15.17;;;6.53;;
948;SDS011;461;51.436;7.312;2023-06-14T02:02:41;7.23;;;6.27;;
948;SDS011;461;51.436;7.312;2023-06-14T02:05:07;8.30;;;6.10;;
948;SDS011;461;51.436;7.312;2023-06-14T02:07:34;8.83;;;5.90;;
948;SDS011;461;51.436;7.312;2023-06-14T02:10:00;8.27;;;6.17;;
948;SDS011;461;51.436;7.312;2023-06-14T02:12:26;7.17;;;6.37;;
948;SDS011;461;51.436;7.312;2023-06-14T02:14:52;9.07;;;7.27;;
948;SDS011;461;51.436;7.312;2023-06-14T02:17:19;7.83;;;6.30;;
948;SDS011;461;51.436;7.312;2023-06-14T02:19:45;6.70;;;5.47;;
948;SDS011;461;51.436;7.312;2023-06-14T02:22:11;6.43;;;5.70;;
948;SDS011;461;51.436;7.312;2023-06-14T02:24:39;7.63;;;6.53;;
948;SDS011;461;51.436;7.312;2023-06-14T02:27:06;8.63;;;6.40;;
948;SDS011;461;51.436;7.312;2023-06-14T02:29:32;6.70;;;6.00;;
948;SDS011;461;51.436;7.312;2023-06-14T02:31:58;8.93;;;5.70;;
948;SDS011;461;51.436;7.312;2023-06-14T02:34:24;7.90;;;5.50;;
948;SDS011;461;51.436;7.312;2023-06-14T02:36:50;8.40;;;6.20;;
948;SDS011;461;51.436;7.312;2023-06-14T02:39:17;6.67;;;6.03;;
948;SDS011;461;51.436;7.312;2023-06-14T02:41:46;8.57;;;6.23;;
948;SDS011;461;51.436;7.312;2023-06-14T02:44:13;7.57;;;5.80;;
948;SDS011;461;51.436;7.312;2023-06-14T02:46:39;10.37;;;5.23;;
948;SDS011;461;51.436;7.312;2023-06-14T02:49:05;5.83;;;5.23;;
948;SDS011;461;51.436;7.312;2023-06-14T02:51:31;8.77;;;6.87;;
948;SDS011;461;51.436;7.312;2023-06-14T02:53:57;6.80;;;5.57;;
948;SDS011;461;51.436;7.312;2023-06-14T02:56:23;6.63;;;5.77;;
948;SDS011;461;51.436;7.312;2023-06-14T02:58:51;9.03;;;5.53;;
948;SDS011;461;51.436;7.312;2023-06-14T03:01:18;7.23;;;5.07;;
948;SDS011;461;51.436;7.312;2023-06-14T03:03:45;6.90;;;5.37;;
948;SDS011;461;51.436;7.312;2023-06-14T03:06:11;11.40;;;5.87;;
948;SDS011;461;51.436;7.312;2023-06-14T03:08:39;10.20;;;5.77;;
948;SDS011;461;51.436;7.312;2023-06-14T03:11:06;9.20;;;5.50;;
948;SDS011;461;51.436;7.312;2023-06-14T03:13:36;7.83;;;5.70;;
948;SDS011;461;51.436;7.312;2023-06-14T03:16:03;7.10;;;5.93;;
948;SDS011;461;51.436;7.312;2023-06-14T03:18:30;8.67;;;4.80;;
948;SDS011;461;51.436;7.312;2023-06-14T03:21:00;5.83;;;5.20;;
948;SDS011;461;51.436;7.312;2023-06-14T03:23:26;6.00;;;5.07;;
948;SDS011;461;51.436;7.312;2023-06-14T03:25:52;7.60;;;6.00;;
948;SDS011;461;51.436;7.312;2023-06-14T03:28:19;8.90;;;5.60;;
948;SDS011;461;51.436;7.312;2023-06-14T03:30:45;6.53;;;5.17;;
948;SDS011;461;51.436;7.312;2023-06-14T03:33:11;7.13;;;5.20;;
948;SDS011;461;51.436;7.312;2023-06-14T03:35:37;8.50;;;5.63;;
948;SDS011;461;51.436;7.312;2023-06-14T03:38:03;9.17;;;5.73;;
948;SDS011;461;51.436;7.312;2023-06-14T03:40:29;6.30;;;4.63;;
948;SDS011;461;51.436;7.312;2023-06-14T03:42:56;9.33;;;5.60;;
948;SDS011;461;51.436;7.312;2023-06-14T03:45:22;7.60;;;5.67;;
948;SDS011;461;51.436;7.312;2023-06-14T03:47:49;7.10;;;5.00;;
948;SDS011;461;51.436;7.312;2023-06-14T03:50:16;10.63;;;4.23;;
948;SDS011;461;51.436;7.312;2023-06-14T03:52:43;16.23;;;4.70;;
948;SDS011;461;51.436;7.312;2023-06-14T03:58:31;8.70;;;5.30;;
948;SDS011;461;51.436;7.312;2023-06-14T04:17:25;9.17;;;4.80;;
948;SDS011;461;51.436;7.312;2023-06-14T04:23:15;7.13;;;4.57;;
948;SDS011;461;51.436;7.312;2023-06-14T04:25:46;6.07;;;4.50;;
948;SDS011;461;51.436;7.312;2023-06-14T04:46:54;7.20;;;4.00;;
948;SDS011;461;51.436;7.312;2023-06-14T04:49:58;7.90;;;4.23;;
948;SDS011;461;51.436;7.312;2023-06-14T04:52:42;6.77;;;4.60;;
948;SDS011;461;51.436;7.312;2023-06-14T04:55:09;5.47;;;4.00;;
948;SDS011;461;51.436;7.312;2023-06-14T04:57:54;4.93;;;4.43;;
948;SDS011;461;51.436;7.312;2023-06-14T05:00:20;5.50;;;3.93;;
948;SDS011;461;51.436;7.312;2023-06-14T05:02:46;5.47;;;4.23;;
948;SDS011;461;51.436;7.312;2023-06-14T05:05:14;7.57;;;3.80;;
948;SDS011;461;51.436;7.312;2023-06-14T05:07:40;6.37;;;4.90;;
948;SDS011;461;51.436;7.312;2023-06-14T05:10:06;7.73;;;4.10;;
948;SDS011;461;51.436;7.312;2023-06-14T05:12:33;9.93;;;4.33;;
948;SDS011;461;51.436;7.312;2023-06-14T05:14:59;6.23;;;3.87;;
948;SDS011;461;51.436;7.312;2023-06-14T05:17:25;6.00;;;4.17;;
948;SDS011;461;51.436;7.312;2023-06-14T05:19:55;9.70;;;3.93;;
948;SDS011;461;51.436;7.312;2023-06-14T05:22:21;9.73;;;4.20;;
948;SDS011;461;51.436;7.312;2023-06-14T05:24:47;7.00;;;4.27;;
948;SDS011;461;51.436;7.312;2023-06-14T05:27:14;6.87;;;3.83;;
948;SDS011;461;51.436;7.312;2023-06-14T05:29:40;6.17;;;4.27;;
948;SDS011;461;51.436;7.312;2023-06-14T05:32:07;4.80;;;4.07;;
948;SDS011;461;51.436;7.312;2023-06-14T05:34:33;7.17;;;4.27;;
948;SDS011;461;51.436;7.312;2023-06-14T05:36:59;6.40;;;4.67;;
948;SDS011;461;51.436;7.312;2023-06-14T05:39:26;8.83;;;4.10;;
948;SDS011;461;51.436;7.312;2023-06-14T05:41:52;7.87;;;4.87;;
948;SDS011;461;51.436;7.312;2023-06-14T05:44:18;4.60;;;3.70;;
948;SDS011;461;51.436;7.312;2023-06-14T05:46:44;6.93;;;4.10;;
948;SDS011;461;51.436;7.312;2023-06-14T05:49:10;5.00;;;3.63;;
948;SDS011;461;51.436;7.312;2023-06-14T05:51:37;5.13;;;3.43;;
948;SDS011;461;51.436;7.312;2023-06-14T05:54:03;6.17;;;3.90;;
948;SDS011;461;51.436;7.312;2023-06-14T05:56:31;8.50;;;6.40;;
948;SDS011;461;51.436;7.312;2023-06-14T05:58:57;7.50;;;3.87;;
948;SDS011;461;51.436;7.312;2023-06-14T06:06:35;8.43;;;3.83;;
948;SDS011;461;51.436;7.312;2023-06-14T06:09:01;6.77;;;3.97;;
948;SDS011;461;51.436;7.312;2023-06-14T06:11:27;4.33;;;3.70;;
948;SDS011;461;51.436;7.312;2023-06-14T06:13:54;10.13;;;4.30;;
948;SDS011;461;51.436;7.312;2023-06-14T06:16:20;5.50;;;3.63;;
948;SDS011;461;51.436;7.312;2023-06-14T06:18:46;3.87;;;3.23;;
948;SDS011;461;51.436;7.312;2023-06-14T06:21:12;5.63;;;3.50;;
948;SDS011;461;51.436;7.312;2023-06-14T06:23:38;9.40;;;4.23;;
948;SDS011;461;51.436;7.312;2023-06-14T06:26:04;4.17;;;3.07;;
948;SDS011;461;51.436;7.312;2023-06-14T06:28:31;3.23;;;2.80;;
948;SDS011;461;51.436;7.312;2023-06-14T06:30:57;7.23;;;3.47;;
948;SDS011;461;51.436;7.312;2023-06-14T06:33:23;3.23;;;2.93;;
948;SDS011;461;51.436;7.312;2023-06-14T06:35:50;4.60;;;3.40;;
948;SDS011;461;51.436;7.312;2023-06-14T06:38:16;5.63;;;2.90;;
948;SDS011;461;51.436;7.312;2023-06-14T06:40:43;3.27;;;2.80;;
948;SDS011;461;51.436;7.312;2023-06-14T06:43:09;5.00;;;3.13;;
948;SDS011;461;51.436;7.312;2023-06-14T06:45:38;3.30;;;2.93;;
948;SDS011;461;51.436;7.312;2023-06-14T06:48:05;4.90;;;3.00;;
948;SDS011;461;51.436;7.312;2023-06-14T06:50:31;4.80;;;3.23;;
948;SDS011;461;51.436;7.312;2023-06-14T06:52:57;6.23;;;2.77;;
948;SDS011;461;51.436;7.312;2023-06-14T06:55:24;6.00;;;3.30;;
948;SDS011;461;51.436;7.312;2023-06-14T06:57:50;6.13;;;2.60;;
948;SDS011;461;51.436;7.312;2023-06-14T07:00:17;3.10;;;2.77;;
948;SDS011;461;51.436;7.312;2023-06-14T07:02:44;5.60;;;3.00;;
948;SDS011;461;51.436;7.312;2023-06-14T07:05:10;5.07;;;2.90;;
948;SDS011;461;51.436;7.312;2023-06-14T07:07:36;6.20;;;2.67;;
948;SDS011;461;51.436;7.312;2023-06-14T07:10:03;5.27;;;3.00;;
948;SDS011;461;51.436;7.312;2023-06-14T07:12:30;4.30;;;3.10;;
948;SDS011;461;51.436;7.312;2023-06-14T07:14:58;4.97;;;2.80;;
948;SDS011;461;51.436;7.312;2023-06-14T07:17:24;5.07;;;2.83;;
948;SDS011;461;51.436;7.312;2023-06-14T07:19:51;3.63;;;2.80;;
948;SDS011;461;51.436;7.312;2023-06-14T07:22:18;3.23;;;2.43;;
948;SDS011;461;51.436;7.312;2023-06-14T07:24:45;3.00;;;2.70;;
948;SDS011;461;51.436;7.312;2023-06-14T07:30:11;3.77;;;2.63;;
948;SDS011;461;51.436;7.312;2023-06-14T07:32:37;8.00;;;2.67;;
948;SDS011;461;51.436;7.312;2023-06-14T07:35:03;4.10;;;2.97;;
948;SDS011;461;51.436;7.312;2023-06-14T07:37:30;4.73;;;2.70;;
948;SDS011;461;51.436;7.312;2023-06-14T07:39:56;3.90;;;3.43;;
948;SDS011;461;51.436;7.312;2023-06-14T07:42:22;5.10;;;2.50;;
948;SDS011;461;51.436;7.312;2023-06-14T07:44:48;5.23;;;2.93;;
948;SDS011;461;51.436;7.312;2023-06-14T07:47:15;4.73;;;2.87;;
948;SDS011;461;51.436;7.312;2023-06-14T07:49:42;4.90;;;2.87;;
948;SDS011;461;51.436;7.312;2023-06-14T07:52:08;3.23;;;2.50;;
948;SDS011;461;51.436;7.312;2023-06-14T07:54:34;6.13;;;3.03;;
948;SDS011;461;51.436;7.312;2023-06-14T07:57:01;3.10;;;2.70;;
948;SDS011;461;51.436;7.312;2023-06-14T07:59:27;3.13;;;2.70;;
948;SDS011;461;51.436;7.312;2023-06-14T08:01:57;4.40;;;2.67;;
948;SDS011;461;51.436;7.312;2023-06-14T08:04:23;4.40;;;3.40;;
948;SDS011;461;51.436;7.312;2023-06-14T08:06:50;5.30;;;2.90;;
948;SDS011;461;51.436;7.312;2023-06-14T08:09:16;6.63;;;2.77;;
948;SDS011;461;51.436;7.312;2023-06-14T08:11:42;3.30;;;2.63;;
948;SDS011;461;51.436;7.312;2023-06-14T08:14:08;9.20;;;3.90;;
948;SDS011;461;51.436;7.312;2023-06-14T08:16:34;2.30;;;2.10;;
948;SDS011;461;51.436;7.312;2023-06-14T08:19:00;4.10;;;2.00;;
948;SDS011;461;51.436;7.312;2023-06-14T08:21:27;8.60;;;2.90;;
948;SDS011;461;51.436;7.312;2023-06-14T08:23:54;8.63;;;2.80;;
948;SDS011;461;51.436;7.312;2023-06-14T08:26:23;2.43;;;1.90;;
948;SDS011;461;51.436;7.312;2023-06-14T08:28:54;2.30;;;2.10;;
948;SDS011;461;51.436;7.312;2023-06-14T08:31:21;7.87;;;2.37;;
948;SDS011;461;51.436;7.312;2023-06-14T08:33:47;2.97;;;2.33;;
948;SDS011;461;51.436;7.312;2023-06-14T08:36:13;3.20;;;2.30;;
948;SDS011;461;51.436;7.312;2023-06-14T08:38:39;2.30;;;2.10;;
948;SDS011;461;51.436;7.312;2023-06-14T08:41:05;3.27;;;2.87;;
948;SDS011;461;51.436;7.312;2023-06-14T08:43:32;3.90;;;2.50;;
948;SDS011;461;51.436;7.312;2023-06-14T08:45:59;3.07;;;1.73;;
948;SDS011;461;51.436;7.312;2023-06-14T08:48:26;5.70;;;1.90;;
948;SDS011;461;51.436;7.312;2023-06-14T08:50:53;2.50;;;2.20;;
948;SDS011;461;51.436;7.312;2023-06-14T08:53:26;5.63;;;2.47;;
948;SDS011;461;51.436;7.312;2023-06-14T08:55:54;6.53;;;2.70;;
948;SDS011;461;51.436;7.312;2023-06-14T08:58:20;2.80;;;1.90;;
948;SDS011;461;51.436;7.312;2023-06-14T09:00:49;2.73;;;2.00;;
948;SDS011;461;51.436;7.312;2023-06-14T09:03:17;2.60;;;2.23;;
948;SDS011;461;51.436;7.312;2023-06-14T09:05:46;3.00;;;1.93;;
948;SDS011;461;51.436;7.312;2023-06-14T09:08:12;2.57;;;1.90;;
948;SDS011;461;51.436;7.312;2023-06-14T09:10:39;2.97;;;2.10;;
948;SDS011;461;51.436;7.312;2023-06-14T09:13:06;3.10;;;2.20;;
948;SDS011;461;51.436;7.312;2023-06-14T09:15:32;2.93;;;1.90;;
948;SDS011;461;51.436;7.312;2023-06-14T09:17:58;2.13;;;1.93;;
948;SDS011;461;51.436;7.312;2023-06-14T09:20:26;2.10;;;1.90;;
948;SDS011;461;51.436;7.312;2023-06-14T09:22:53;2.27;;;1.90;;
948;SDS011;461;51.436;7.312;2023-06-14T09:25:19;2.83;;;1.73;;
948;SDS011;461;51.436;7.312;2023-06-14T09:27:45;4.30;;;1.70;;
948;SDS011;461;51.436;7.312;2023-06-14T09:30:13;2.33;;;2.13;;
948;SDS011;461;51.436;7.312;2023-06-14T09:32:43;1.80;;;1.60;;
948;SDS011;461;51.436;7.312;2023-06-14T09:35:10;2.03;;;1.60;;
948;SDS011;461;51.436;7.312;2023-06-14T09:37:36;2.50;;;1.50;;
948;SDS011;461;51.436;7.312;2023-06-14T09:40:04;3.60;;;1.80;;
948;SDS011;461;51.436;7.312;2023-06-14T09:42:30;1.60;;;1.50;;
948;SDS011;461;51.436;7.312;2023-06-14T09:44:57;2.93;;;1.70;;
948;SDS011;461;51.436;7.312;2023-06-14T09:47:23;2.20;;;2.00;;
948;SDS011;461;51.436;7.312;2023-06-14T09:49:50;5.03;;;2.13;;
948;SDS011;461;51.436;7.312;2023-06-14T09:52:20;2.07;;;1.87;;
948;SDS011;461;51.436;7.312;2023-06-14T09:54:47;2.10;;;1.90;;
948;SDS011;461;51.436;7.312;2023-06-14T09:57:14;4.43;;;1.93;;
948;SDS011;461;51.436;7.312;2023-06-14T09:59:45;4.23;;;2.37;;
948;SDS011;461;51.436;7.312;2023-06-14T10:04:46;5.73;;;1.70;;
948;SDS011;461;51.436;7.312;2023-06-14T10:07:14;3.53;;;1.70;;
948;SDS011;461;51.436;7.312;2023-06-14T10:09:42;2.27;;;1.63;;
948;SDS011;461;51.436;7.312;2023-06-14T10:12:17;5.30;;;2.03;;
948;SDS011;461;51.436;7.312;2023-06-14T10:15:11;2.17;;;1.93;;
948;SDS011;461;51.436;7.312;2023-06-14T10:23:24;2.20;;;1.70;;
948;SDS011;461;51.436;7.312;2023-06-14T10:39:16;2.37;;;1.70;;
948;SDS011;461;51.436;7.312;2023-06-14T10:41:50;2.10;;;1.83;;
948;SDS011;461;51.436;7.312;2023-06-14T10:52:44;2.43;;;1.70;;
948;SDS011;461;51.436;7.312;2023-06-14T10:55:16;2.80;;;1.53;;
948;SDS011;461;51.436;7.312;2023-06-14T10:57:47;1.63;;;1.50;;
948;SDS011;461;51.436;7.312;2023-06-14T11:00:24;2.80;;;1.80;;
948;SDS011;461;51.436;7.312;2023-06-14T11:08:27;2.03;;;1.73;;
948;SDS011;461;51.436;7.312;2023-06-14T11:11:12;6.30;;;2.60;;
948;SDS011;461;51.436;7.312;2023-06-14T11:14:05;3.20;;;2.10;;
948;SDS011;461;51.436;7.312;2023-06-14T11:16:33;2.20;;;1.70;;
948;SDS011;461;51.436;7.312;2023-06-14T11:19:02;5.60;;;2.50;;
948;SDS011;461;51.436;7.312;2023-06-14T11:21:32;2.00;;;1.80;;
948;SDS011;461;51.436;7.312;2023-06-14T11:24:02;3.10;;;1.83;;
948;SDS011;461;51.436;7.312;2023-06-14T11:26:29;3.30;;;1.73;;
948;SDS011;461;51.436;7.312;2023-06-14T11:28:59;3.00;;;2.00;;
948;SDS011;461;51.436;7.312;2023-06-14T11:31:26;3.60;;;1.90;;
948;SDS011;461;51.436;7.312;2023-06-14T11:34:02;2.57;;;2.10;;
948;SDS011;461;51.436;7.312;2023-06-14T11:36:31;2.60;;;2.40;;
948;SDS011;461;51.436;7.312;2023-06-14T11:39:01;3.30;;;2.50;;
948;SDS011;461;51.436;7.312;2023-06-14T11:41:38;9.20;;;2.40;;
948;SDS011;461;51.436;7.312;2023-06-14T11:44:07;3.30;;;2.13;;
948;SDS011;461;51.436;7.312;2023-06-14T11:46:34;6.50;;;2.50;;
948;SDS011;461;51.436;7.312;2023-06-14T11:49:01;3.07;;;2.50;;
948;SDS011;461;51.436;7.312;2023-06-14T11:51:32;5.87;;;3.50;;
948;SDS011;461;51.436;7.312;2023-06-14T11:54:02;4.80;;;2.90;;
948;SDS011;461;51.436;7.312;2023-06-14T11:56:29;4.93;;;2.40;;
948;SDS011;461;51.436;7.312;2023-06-14T11:58:56;7.40;;;2.90;;
948;SDS011;461;51.436;7.312;2023-06-14T12:01:23;3.60;;;2.30;;
948;SDS011;461;51.436;7.312;2023-06-14T12:03:53;2.90;;;2.60;;
948;SDS011;461;51.436;7.312;2023-06-14T12:06:32;3.13;;;2.33;;
948;SDS011;461;51.436;7.312;2023-06-14T12:09:04;3.10;;;2.80;;
948;SDS011;461;51.436;7.312;2023-06-14T12:11:38;4.97;;;2.77;;
948;SDS011;461;51.436;7.312;2023-06-14T12:14:11;3.70;;;2.53;;
948;SDS011;461;51.436;7.312;2023-06-14T12:20:12;3.17;;;2.87;;
948;SDS011;461;51.436;7.312;2023-06-14T12:23:08;3.50;;;3.10;;
948;SDS011;461;51.436;7.312;2023-06-14T12:25:35;2.70;;;2.50;;
948;SDS011;461;51.436;7.312;2023-06-14T12:28:09;7.50;;;3.30;;
948;SDS011;461;51.436;7.312;2023-06-14T12:30:36;2.63;;;2.40;;
948;SDS011;461;51.436;7.312;2023-06-14T12:33:03;4.00;;;2.57;;
948;SDS011;461;51.436;7.312;2023-06-14T12:35:29;3.00;;;2.67;;
948;SDS011;461;51.436;7.312;2023-06-14T12:37:55;5.87;;;2.77;;
948;SDS011;461;51.436;7.312;2023-06-14T12:40:22;2.80;;;2.50;;
948;SDS011;461;51.436;7.312;2023-06-14T12:42:48;4.43;;;2.70;;
948;SDS011;461;51.436;7.312;2023-06-14T12:45:14;7.67;;;2.60;;
948;SDS011;461;51.436;7.312;2023-06-14T12:47:41;4.90;;;2.90;;
948;SDS011;461;51.436;7.312;2023-06-14T12:50:07;5.83;;;2.80;;
948;SDS011;461;51.436;7.312;2023-06-14T12:52:33;3.77;;;2.60;;
948;SDS011;461;51.436;7.312;2023-06-14T12:55:03;2.97;;;2.53;;
948;SDS011;461;51.436;7.312;2023-06-14T12:57:29;2.63;;;2.43;;
948;SDS011;461;51.436;7.312;2023-06-14T12:59:56;2.97;;;2.60;;
948;SDS011;461;51.436;7.312;2023-06-14T13:02:22;3.03;;;2.50;;
948;SDS011;461;51.436;7.312;2023-06-14T13:04:49;4.60;;;2.90;;
948;SDS011;461;51.436;7.312;2023-06-14T13:07:16;2.57;;;2.30;;
948;SDS011;461;51.436;7.312;2023-06-14T13:09:42;3.27;;;2.80;;
948;SDS011;461;51.436;7.312;2023-06-14T13:12:12;4.07;;;2.60;;
948;SDS011;461;51.436;7.312;2023-06-14T13:14:38;5.30;;;3.07;;
948;SDS011;461;51.436;7.312;2023-06-14T13:17:05;3.87;;;2.40;;
948;SDS011;461;51.436;7.312;2023-06-14T13:19:32;2.83;;;2.63;;
948;SDS011;461;51.436;7.312;2023-06-14T13:21:58;4.33;;;2.63;;
948;SDS011;461;51.436;7.312;2023-06-14T13:24:24;2.97;;;2.50;;
948;SDS011;461;51.436;7.312;2023-06-14T13:26:50;2.97;;;2.60;;
948;SDS011;461;51.436;7.312;2023-06-14T13:29:17;3.40;;;2.60;;
948;SDS011;461;51.436;7.312;2023-06-14T13:31:43;2.60;;;2.40;;
948;SDS011;461;51.436;7.312;2023-06-14T13:34:10;5.67;;;2.73;;
948;SDS011;461;51.436;7.312;2023-06-14T13:36:36;4.43;;;2.80;;
948;SDS011;461;51.436;7.312;2023-06-14T13:39:02;4.00;;;2.50;;
948;SDS011;461;51.436;7.312;2023-06-14T13:41:29;7.93;;;2.70;;
948;SDS011;461;51.436;7.312;2023-06-14T13:43:57;3.83;;;2.23;;
948;SDS011;461;51.436;7.312;2023-06-14T13:46:24;3.60;;;2.67;;
948;SDS011;461;51.436;7.312;2023-06-14T13:48:53;3.10;;;2.50;;
948;SDS011;461;51.436;7.312;2023-06-14T13:51:19;2.73;;;2.50;;
948;SDS011;461;51.436;7.312;2023-06-14T13:53:49;3.57;;;2.50;;
948;SDS011;461;51.436;7.312;2023-06-14T13:56:16;4.83;;;2.67;;
948;SDS011;461;51.436;7.312;2023-06-14T13:58:42;4.27;;;3.13;;
948;SDS011;461;51.436;7.312;2023-06-14T14:01:08;3.10;;;2.67;;
948;SDS011;461;51.436;7.312;2023-06-14T14:03:35;2.67;;;2.47;;
948;SDS011;461;51.436;7.312;2023-06-14T14:06:01;3.63;;;2.40;;
948;SDS011;461;51.436;7.312;2023-06-14T14:08:27;5.10;;;3.23;;
948;SDS011;461;51.436;7.312;2023-06-14T14:10:54;6.37;;;2.27;;
948;SDS011;461;51.436;7.312;2023-06-14T14:13:21;3.10;;;2.67;;
948;SDS011;461;51.436;7.312;2023-06-14T14:15:47;2.70;;;2.50;;
948;SDS011;461;51.436;7.312;2023-06-14T14:18:14;7.30;;;3.30;;
948;SDS011;461;51.436;7.312;2023-06-14T14:20:40;6.67;;;2.97;;
948;SDS011;461;51.436;7.312;2023-06-14T14:23:06;3.10;;;2.80;;
948;SDS011;461;51.436;7.312;2023-06-14T14:25:32;7.73;;;2.83;;
948;SDS011;461;51.436;7.312;2023-06-14T14:27:58;3.60;;;3.00;;
948;SDS011;461;51.436;7.312;2023-06-14T14:30:24;4.43;;;2.60;;
948;SDS011;461;51.436;7.312;2023-06-14T14:32:51;3.27;;;2.50;;
948;SDS011;461;51.436;7.312;2023-06-14T14:35:17;3.93;;;2.80;;
948;SDS011;461;51.436;7.312;2023-06-14T14:37:44;2.87;;;2.57;;
948;SDS011;461;51.436;7.312;2023-06-14T14:40:10;3.80;;;2.20;;
948;SDS011;461;51.436;7.312;2023-06-14T14:42:37;3.00;;;2.70;;
948;SDS011;461;51.436;7.312;2023-06-14T14:45:03;2.93;;;2.50;;
948;SDS011;461;51.436;7.312;2023-06-14T14:47:30;3.87;;;2.80;;
948;SDS011;461;51.436;7.312;2023-06-14T14:49:56;3.33;;;2.50;;
948;SDS011;461;51.436;7.312;2023-06-14T14:52:22;3.90;;;3.10;;
948;SDS011;461;51.436;7.312;2023-06-14T14:54:48;3.23;;;2.90;;
948;SDS011;461;51.436;7.312;2023-06-14T14:57:15;2.97;;;2.73;;
948;SDS011;461;51.436;7.312;2023-06-14T14:59:41;4.90;;;2.80;;
948;SDS011;461;51.436;7.312;2023-06-14T15:02:07;3.50;;;3.20;;
948;SDS011;461;51.436;7.312;2023-06-14T15:04:35;3.87;;;3.20;;
948;SDS011;461;51.436;7.312;2023-06-14T15:07:01;3.70;;;3.00;;
948;SDS011;461;51.436;7.312;2023-06-14T15:11:58;2.87;;;2.63;;
948;SDS011;461;51.436;7.312;2023-06-14T15:14:24;2.70;;;2.50;;
948;SDS011;461;51.436;7.312;2023-06-14T15:16:50;5.23;;;3.13;;
948;SDS011;461;51.436;7.312;2023-06-14T15:19:17;3.47;;;2.50;;
948;SDS011;461;51.436;7.312;2023-06-14T15:24:14;5.70;;;3.03;;
948;SDS011;461;51.436;7.312;2023-06-14T15:26:40;3.60;;;2.77;;
948;SDS011;461;51.436;7.312;2023-06-14T15:29:07;4.30;;;2.93;;
948;SDS011;461;51.436;7.312;2023-06-14T15:31:33;6.37;;;3.27;;
948;SDS011;461;51.436;7.312;2023-06-14T15:33:59;6.93;;;2.70;;
948;SDS011;461;51.436;7.312;2023-06-14T15:36:25;3.73;;;3.23;;
948;SDS011;461;51.436;7.312;2023-06-14T15:38:52;5.97;;;3.20;;
948;SDS011;461;51.436;7.312;2023-06-14T15:41:18;3.30;;;3.00;;
948;SDS011;461;51.436;7.312;2023-06-14T15:43:44;2.97;;;2.67;;
948;SDS011;461;51.436;7.312;2023-06-14T15:46:10;3.33;;;3.03;;
948;SDS011;461;51.436;7.312;2023-06-14T15:48:36;3.07;;;2.57;;
948;SDS011;461;51.436;7.312;2023-06-14T15:51:03;5.20;;;2.87;;
948;SDS011;461;51.436;7.312;2023-06-14T15:53:29;7.30;;;2.83;;
948;SDS011;461;51.436;7.312;2023-06-14T15:55:55;3.90;;;2.70;;
948;SDS011;461;51.436;7.312;2023-06-14T15:58:21;3.27;;;2.70;;
948;SDS011;461;51.436;7.312;2023-06-14T16:00:48;4.10;;;2.93;;
948;SDS011;461;51.436;7.312;2023-06-14T16:03:14;3.23;;;2.50;;
948;SDS011;461;51.436;7.312;2023-06-14T16:05:40;3.63;;;3.33;;
948;SDS011;461;51.436;7.312;2023-06-14T16:08:12;3.23;;;2.80;;
948;SDS011;461;51.436;7.312;2023-06-14T16:10:40;3.13;;;2.47;;
948;SDS011;461;51.436;7.312;2023-06-14T16:13:06;3.80;;;3.13;;
948;SDS011;461;51.436;7.312;2023-06-14T16:15:35;5.50;;;2.80;;
948;SDS011;461;51.436;7.312;2023-06-14T16:18:01;5.27;;;2.43;;
948;SDS011;461;51.436;7.312;2023-06-14T16:20:37;6.10;;;3.00;;
948;SDS011;461;51.436;7.312;2023-06-14T16:23:04;4.40;;;3.40;;
948;SDS011;461;51.436;7.312;2023-06-14T16:25:30;4.60;;;2.80;;
948;SDS011;461;51.436;7.312;2023-06-14T16:27:56;4.30;;;2.90;;
948;SDS011;461;51.436;7.312;2023-06-14T16:30:23;7.17;;;2.90;;
948;SDS011;461;51.436;7.312;2023-06-14T16:32:49;3.57;;;2.87;;
948;SDS011;461;51.436;7.312;2023-06-14T16:35:16;2.73;;;2.47;;
948;SDS011;461;51.436;7.312;2023-06-14T16:37:42;3.90;;;2.93;;
948;SDS011;461;51.436;7.312;2023-06-14T16:40:08;4.17;;;2.77;;
948;SDS011;461;51.436;7.312;2023-06-14T16:42:35;4.50;;;2.93;;
948;SDS011;461;51.436;7.312;2023-06-14T16:45:01;3.33;;;3.03;;
948;SDS011;461;51.436;7.312;2023-06-14T16:47:30;3.60;;;3.00;;
948;SDS011;461;51.436;7.312;2023-06-14T16:49:56;4.07;;;2.67;;
948;SDS011;461;51.436;7.312;2023-06-14T16:52:22;3.40;;;3.00;;
948;SDS011;461;51.436;7.312;2023-06-14T16:54:49;5.37;;;3.00;;
948;SDS011;461;51.436;7.312;2023-06-14T16:57:15;5.67;;;5.17;;
948;SDS011;461;51.436;7.312;2023-06-14T16:59:41;5.10;;;3.27;;
948;SDS011;461;51.436;7.312;2023-06-14T17:02:07;9.50;;;5.80;;
948;SDS011;461;51.436;7.312;2023-06-14T17:04:33;3.50;;;3.00;;
948;SDS011;461;51.436;7.312;2023-06-14T17:06:59;3.97;;;2.63;;
948;SDS011;461;51.436;7.312;2023-06-14T17:09:28;6.13;;;2.80;;
948;SDS011;461;51.436;7.312;2023-06-14T17:11:54;9.57;;;2.47;;
948;SDS011;461;51.436;7.312;2023-06-14T17:14:22;2.97;;;2.67;;
948;SDS011;461;51.436;7.312;2023-06-14T17:16:48;4.63;;;2.87;;
948;SDS011;461;51.436;7.312;2023-06-14T17:19:15;2.90;;;2.70;;
948;SDS011;461;51.436;7.312;2023-06-14T17:21:41;4.37;;;2.53;;